sensor_id;sensor_type;location;lat;lon;timestamp;pressure;altitude;pressure_sealevel;temperature;humidity
41040;BME280;48586;50.122;18.972;2022-09-09T13:15:58;98442.09;;;22.72;50.50
41040;BME280;48586;50.122;18.972;2022-09-09T13:19:07;98432.34;;;23.09;51.71
41040;BME280;48586;50.122;18.972;2022-09-09T13:22:13;98438.22;;;23.49;51.07
41040;BME280;48586;50.122;18.972;2022-09-09T13:25:22;98439.88;;;23.77;49.81
41040;BME280;48586;50.122;18.972;2022-09-09T13:28:27;98429.25;;;23.94;50.48
41040;BME280;48586;50.122;18.972;2022-09-09T13:31:35;98418.84;;;24.15;49.30
41040;BME280;48586;50.122;18.972;2022-09-09T13:34:38;98419.44;;;24.26;50.30
41040;BME280;48586;50.122;18.972;2022-09-09T13:37:41;98418.22;;;24.32;49.68
41040;BME280;48586;50.122;18.972;2022-09-09T13:40:52;98424.56;;;24.64;48.18
41040;BME280;48586;50.122;18.972;2022-09-09T13:43:55;98409.38;;;24.77;47.82
41040;BME280;48586;50.122;18.972;2022-09-09T13:47:04;98407.31;;;24.96;47.34
41040;BME280;48586;50.122;18.972;2022-09-09T13:50:18;98410.19;;;25.22;46.02
41040;BME280;48586;50.122;18.972;2022-09-09T13:53:21;98401.28;;;25.22;47.62
41040;BME280;48586;50.122;18.972;2022-09-09T13:56:23;98401.13;;;25.27;46.99
41040;BME280;48586;50.122;18.972;2022-09-09T13:59:25;98399.53;;;25.26;47.50
41040;BME280;48586;50.122;18.972;2022-09-09T14:02:29;98402.56;;;25.24;47.12
41040;BME280;48586;50.122;18.972;2022-09-09T14:05:32;98399.81;;;25.15;47.76
41040;BME280;48586;50.122;18.972;2022-09-09T14:08:34;98387.31;;;25.06;47.20
41040;BME280;48586;50.122;18.972;2022-09-09T14:11:37;98387.06;;;24.93;46.02
41040;BME280;48586;50.122;18.972;2022-09-09T14:14:41;98397.13;;;24.79;45.70
41040;BME280;48586;50.122;18.972;2022-09-09T14:17:44;98389.53;;;24.81;46.38
41040;BME280;48586;50.122;18.972;2022-09-09T14:20:46;98390.81;;;24.84;46.39
41040;BME280;48586;50.122;18.972;2022-09-09T14:23:48;98386.19;;;24.84;45.86
41040;BME280;48586;50.122;18.972;2022-09-09T14:26:50;98374.63;;;24.92;45.80
41040;BME280;48586;50.122;18.972;2022-09-09T14:29:52;98378.00;;;24.98;45.65
41040;BME280;48586;50.122;18.972;2022-09-09T14:32:59;98373.69;;;24.97;44.91
41040;BME280;48586;50.122;18.972;2022-09-09T14:36:03;98375.53;;;24.88;44.97
41040;BME280;48586;50.122;18.972;2022-09-09T14:39:05;98377.28;;;24.84;45.69
41040;BME280;48586;50.122;18.972;2022-09-09T14:42:07;98388.41;;;24.82;45.55
41040;BME280;48586;50.122;18.972;2022-09-09T14:45:12;98388.00;;;24.75;44.84
41040;BME280;48586;50.122;18.972;2022-09-09T14:48:15;98380.63;;;24.67;44.95
41040;BME280;48586;50.122;18.972;2022-09-09T14:51:19;98378.63;;;24.59;45.53
41040;BME280;48586;50.122;18.972;2022-09-09T14:54:22;98383.34;;;24.53;45.90
41040;BME280;48586;50.122;18.972;2022-09-09T14:57:24;98382.88;;;24.51;45.46
41040;BME280;48586;50.122;18.972;2022-09-09T15:00:26;98376.94;;;24.49;45.92
41040;BME280;48586;50.122;18.972;2022-09-09T15:03:29;98380.94;;;24.52;46.43
41040;BME280;48586;50.122;18.972;2022-09-09T15:06:33;98369.78;;;24.67;46.79
41040;BME280;48586;50.122;18.972;2022-09-09T15:09:38;98376.06;;;24.76;46.22
41040;BME280;48586;50.122;18.972;2022-09-09T15:12:39;98385.00;;;24.77;46.31
41040;BME280;48586;50.122;18.972;2022-09-09T15:15:42;98376.19;;;24.71;45.82
41040;BME280;48586;50.122;18.972;2022-09-09T15:18:46;98375.81;;;24.64;46.01
41040;BME280;48586;50.122;18.972;2022-09-09T15:21:48;98382.25;;;24.54;46.40
41040;BME280;48586;50.122;18.972;2022-09-09T15:24:50;98380.69;;;24.39;46.09
41040;BME280;48586;50.122;18.972;2022-09-09T15:27:52;98376.69;;;24.23;46.16
41040;BME280;48586;50.122;18.972;2022-09-09T15:30:54;98387.56;;;24.09;46.67
41040;BME280;48586;50.122;18.972;2022-09-09T15:34:00;98380.91;;;24.02;47.32
41040;BME280;48586;50.122;18.972;2022-09-09T15:37:02;98375.41;;;23.93;47.97
41040;BME280;48586;50.122;18.972;2022-09-09T15:40:04;98389.66;;;23.85;47.63
41040;BME280;48586;50.122;18.972;2022-09-09T15:43:08;98392.28;;;23.76;48.11
41040;BME280;48586;50.122;18.972;2022-09-09T15:46:26;98392.16;;;23.67;47.93
41040;BME280;48586;50.122;18.972;2022-09-09T15:49:30;98391.06;;;23.55;49.30
41040;BME280;48586;50.122;18.972;2022-09-09T15:52:31;98389.81;;;23.47;50.06
41040;BME280;48586;50.122;18.972;2022-09-09T15:55:33;98385.91;;;23.39;50.98
41040;BME280;48586;50.122;18.972;2022-09-09T15:58:36;98387.09;;;23.33;51.66
41040;BME280;48586;50.122;18.972;2022-09-09T16:01:38;98373.13;;;23.26;52.68
41040;BME280;48586;50.122;18.972;2022-09-09T16:04:42;98373.81;;;23.18;53.48
41040;BME280;48586;50.122;18.972;2022-09-09T16:07:44;98374.41;;;23.15;53.64
41040;BME280;48586;50.122;18.972;2022-09-09T16:10:46;98377.72;;;23.12;53.62
41040;BME280;48586;50.122;18.972;2022-09-09T16:13:50;98380.34;;;22.98;53.35
41040;BME280;48586;50.122;18.972;2022-09-09T16:16:52;98371.91;;;22.86;54.08
41040;BME280;48586;50.122;18.972;2022-09-09T16:19:55;98367.19;;;22.78;54.97
41040;BME280;48586;50.122;18.972;2022-09-09T16:22:58;98364.84;;;22.71;55.45
41040;BME280;48586;50.122;18.972;2022-09-09T16:26:02;98368.22;;;22.63;55.96
41040;BME280;48586;50.122;18.972;2022-09-09T16:29:04;98362.66;;;22.54;56.90
41040;BME280;48586;50.122;18.972;2022-09-09T16:32:06;98360.97;;;22.39;57.40
41040;BME280;48586;50.122;18.972;2022-09-09T16:35:10;98363.53;;;22.31;58.32
41040;BME280;48586;50.122;18.972;2022-09-09T16:38:12;98365.53;;;22.20;58.68
41040;BME280;48586;50.122;18.972;2022-09-09T16:41:14;98362.19;;;22.09;59.40
41040;BME280;48586;50.122;18.972;2022-09-09T16:44:17;98362.25;;;22.04;59.65
41040;BME280;48586;50.122;18.972;2022-09-09T16:47:19;98366.69;;;21.95;60.34
41040;BME280;48586;50.122;18.972;2022-09-09T16:50:23;98362.28;;;21.80;60.64
41040;BME280;48586;50.122;18.972;2022-09-09T16:53:25;98372.25;;;21.56;61.25
41040;BME280;48586;50.122;18.972;2022-09-09T16:56:28;98371.13;;;21.33;61.73
41040;BME280;48586;50.122;18.972;2022-09-09T16:59:32;98379.63;;;21.16;61.92
41040;BME280;48586;50.122;18.972;2022-09-09T17:02:34;98374.34;;;21.06;62.32
41040;BME280;48586;50.122;18.972;2022-09-09T17:05:40;98372.78;;;20.94;62.80
41040;BME280;48586;50.122;18.972;2022-09-09T17:08:42;98380.44;;;20.82;63.19
41040;BME280;48586;50.122;18.972;2022-09-09T17:11:44;98378.88;;;20.71;63.16
41040;BME280;48586;50.122;18.972;2022-09-09T17:14:47;98378.97;;;20.61;63.54
41040;BME280;48586;50.122;18.972;2022-09-09T17:17:49;98382.25;;;20.53;63.76
41040;BME280;48586;50.122;18.972;2022-09-09T17:20:55;98380.97;;;20.40;64.10
41040;BME280;48586;50.122;18.972;2022-09-09T17:23:57;98381.56;;;20.32;64.27
41040;BME280;48586;50.122;18.972;2022-09-09T17:26:59;98386.44;;;20.25;64.05
41040;BME280;48586;50.122;18.972;2022-09-09T17:30:03;98394.53;;;20.19;63.96
41040;BME280;48586;50.122;18.972;2022-09-09T17:33:04;98389.22;;;20.09;64.15
41040;BME280;48586;50.122;18.972;2022-09-09T17:36:11;98393.28;;;20.02;64.55
41040;BME280;48586;50.122;18.972;2022-09-09T17:39:13;98397.03;;;19.90;64.73
41040;BME280;48586;50.122;18.972;2022-09-09T17:42:15;98393.03;;;19.83;65.02
41040;BME280;48586;50.122;18.972;2022-09-09T17:45:17;98397.09;;;19.75;65.39
41040;BME280;48586;50.122;18.972;2022-09-09T17:48:19;98394.69;;;19.68;65.55
41040;BME280;48586;50.122;18.972;2022-09-09T17:51:25;98398.47;;;19.67;66.13
41040;BME280;48586;50.122;18.972;2022-09-09T17:54:30;98401.97;;;19.63;66.30
41040;BME280;48586;50.122;18.972;2022-09-09T17:57:33;98404.66;;;19.53;67.24
41040;BME280;48586;50.122;18.972;2022-09-09T18:00:35;98403.34;;;19.45;66.03
41040;BME280;48586;50.122;18.972;2022-09-09T18:03:38;98408.97;;;19.43;66.41
41040;BME280;48586;50.122;18.972;2022-09-09T18:06:43;98412.22;;;19.45;66.51
41040;BME280;48586;50.122;18.972;2022-09-09T18:09:45;98399.88;;;19.44;66.71
41040;BME280;48586;50.122;18.972;2022-09-09T18:12:49;98408.44;;;19.52;66.92
41040;BME280;48586;50.122;18.972;2022-09-09T18:15:51;98415.69;;;19.61;66.91
41040;BME280;48586;50.122;18.972;2022-09-09T18:18:54;98412.19;;;19.61;66.98
41040;BME280;48586;50.122;18.972;2022-09-09T18:21:59;98422.16;;;19.55;67.32
41040;BME280;48586;50.122;18.972;2022-09-09T18:25:02;98414.38;;;19.49;67.25
41040;BME280;48586;50.122;18.972;2022-09-09T18:28:05;98418.13;;;19.48;67.66
41040;BME280;48586;50.122;18.972;2022-09-09T18:31:08;98425.91;;;19.44;67.45
41040;BME280;48586;50.122;18.972;2022-09-09T18:34:12;98427.81;;;19.38;68.05
41040;BME280;48586;50.122;18.972;2022-09-09T18:37:16;98425.13;;;19.33;68.05
41040;BME280;48586;50.122;18.972;2022-09-09T18:40:17;98440.72;;;19.26;68.26
41040;BME280;48586;50.122;18.972;2022-09-09T18:43:20;98438.31;;;19.25;68.45
41040;BME280;48586;50.122;18.972;2022-09-09T18:46:23;98443.41;;;19.26;68.51
41040;BME280;48586;50.122;18.972;2022-09-09T18:49:26;98442.88;;;19.24;68.77
41040;BME280;48586;50.122;18.972;2022-09-09T18:52:30;98439.63;;;19.22;69.03
41040;BME280;48586;50.122;18.972;2022-09-09T18:55:31;98440.44;;;19.17;68.86
41040;BME280;48586;50.122;18.972;2022-09-09T18:58:34;98446.38;;;19.14;69.00
41040;BME280;48586;50.122;18.972;2022-09-09T19:01:36;98444.22;;;19.11;68.85
41040;BME280;48586;50.122;18.972;2022-09-09T19:04:41;98438.28;;;19.09;69.16
41040;BME280;48586;50.122;18.972;2022-09-09T19:07:45;98432.38;;;19.12;70.82
41040;BME280;48586;50.122;18.972;2022-09-09T19:10:47;98422.16;;;19.09;69.29
41040;BME280;48586;50.122;18.972;2022-09-09T19:13:50;98425.91;;;19.08;69.29
41040;BME280;48586;50.122;18.972;2022-09-09T19:16:52;98422.16;;;19.09;69.38
41040;BME280;48586;50.122;18.972;2022-09-09T19:19:54;98415.47;;;19.12;69.54
41040;BME280;48586;50.122;18.972;2022-09-09T19:22:58;98414.94;;;19.15;69.63
41040;BME280;48586;50.122;18.972;2022-09-09T19:26:00;98418.44;;;19.15;69.51
41040;BME280;48586;50.122;18.972;2022-09-09T19:29:03;98407.69;;;19.15;69.77
41040;BME280;48586;50.122;18.972;2022-09-09T19:32:05;98418.44;;;19.15;69.93
41040;BME280;48586;50.122;18.972;2022-09-09T19:35:07;98419.50;;;19.14;70.11
41040;BME280;48586;50.122;18.972;2022-09-09T19:38:12;98429.19;;;19.15;69.96
41040;BME280;48586;50.122;18.972;2022-09-09T19:41:16;98426.78;;;19.14;70.23
41040;BME280;48586;50.122;18.972;2022-09-09T19:44:19;98428.91;;;19.12;70.55
41040;BME280;48586;50.122;18.972;2022-09-09T19:47:21;98428.66;;;19.18;70.67
41040;BME280;48586;50.122;18.972;2022-09-09T19:50:23;98434.00;;;19.24;70.70
41040;BME280;48586;50.122;18.972;2022-09-09T19:53:27;98435.59;;;19.30;70.47
41040;BME280;48586;50.122;18.972;2022-09-09T19:56:30;98436.97;;;19.32;70.42
41040;BME280;48586;50.122;18.972;2022-09-09T19:59:32;98429.44;;;19.29;70.59
41040;BME280;48586;50.122;18.972;2022-09-09T20:02:35;98429.72;;;19.23;70.56
41040;BME280;48586;50.122;18.972;2022-09-09T20:05:38;98436.44;;;19.20;70.79
41040;BME280;48586;50.122;18.972;2022-09-09T20:08:43;98432.16;;;19.14;70.54
41040;BME280;48586;50.122;18.972;2022-09-09T20:11:47;98435.31;;;19.06;70.37
41040;BME280;48586;50.122;18.972;2022-09-09T20:14:49;98434.78;;;18.99;70.81
41040;BME280;48586;50.122;18.972;2022-09-09T20:17:51;98439.34;;;18.98;70.66
41040;BME280;48586;50.122;18.972;2022-09-09T20:20:56;98439.06;;;18.94;70.98
41040;BME280;48586;50.122;18.972;2022-09-09T20:24:02;98432.09;;;18.88;70.99
41040;BME280;48586;50.122;18.972;2022-09-09T20:27:05;98432.06;;;18.83;71.10
41040;BME280;48586;50.122;18.972;2022-09-09T20:30:08;98430.72;;;18.81;71.05
41040;BME280;48586;50.122;18.972;2022-09-09T20:33:10;98434.50;;;18.80;71.27
41040;BME280;48586;50.122;18.972;2022-09-09T20:36:15;98429.38;;;18.78;71.56
41040;BME280;48586;50.122;18.972;2022-09-09T20:39:19;98425.88;;;18.78;71.58
41040;BME280;48586;50.122;18.972;2022-09-09T20:42:21;98431.53;;;18.76;71.52
41040;BME280;48586;50.122;18.972;2022-09-09T20:45:24;98432.06;;;18.73;71.65
41040;BME280;48586;50.122;18.972;2022-09-09T20:48:26;98428.84;;;18.71;71.71
41040;BME280;48586;50.122;18.972;2022-09-09T20:51:28;98413.25;;;18.68;72.00
41040;BME280;48586;50.122;18.972;2022-09-09T20:54:33;98422.41;;;18.67;72.04
41040;BME280;48586;50.122;18.972;2022-09-09T20:57:37;98419.72;;;18.67;72.04
41040;BME280;48586;50.122;18.972;2022-09-09T21:00:38;98424.00;;;18.68;72.10
41040;BME280;48586;50.122;18.972;2022-09-09T21:03:41;98422.63;;;18.65;72.24
41040;BME280;48586;50.122;18.972;2022-09-09T21:06:43;98419.94;;;18.60;72.05
41040;BME280;48586;50.122;18.972;2022-09-09T21:09:46;98426.63;;;18.53;72.19
41040;BME280;48586;50.122;18.972;2022-09-09T21:12:48;98425.03;;;18.52;72.11
41040;BME280;48586;50.122;18.972;2022-09-09T21:15:50;98421.03;;;18.49;72.02
41040;BME280;48586;50.122;18.972;2022-09-09T21:18:53;98424.22;;;18.46;72.35
41040;BME280;48586;50.122;18.972;2022-09-09T21:21:55;98423.13;;;18.37;72.48
41040;BME280;48586;50.122;18.972;2022-09-09T21:25:00;98420.16;;;18.28;72.74
41040;BME280;48586;50.122;18.972;2022-09-09T21:28:03;98421.19;;;18.22;72.66
41040;BME280;48586;50.122;18.972;2022-09-09T21:31:05;98415.28;;;18.15;72.78
41040;BME280;48586;50.122;18.972;2022-09-09T21:34:08;98412.00;;;18.13;72.75
41040;BME280;48586;50.122;18.972;2022-09-09T21:37:12;98415.75;;;18.12;72.47
41040;BME280;48586;50.122;18.972;2022-09-09T21:40:16;98407.69;;;18.07;73.11
41040;BME280;48586;50.122;18.972;2022-09-09T21:43:19;98405.81;;;18.02;72.88
41040;BME280;48586;50.122;18.972;2022-09-09T21:46:23;98404.97;;;17.96;73.01
41040;BME280;48586;50.122;18.972;2022-09-09T21:49:27;98415.13;;;17.89;73.16
41040;BME280;48586;50.122;18.972;2022-09-09T21:52:28;98407.34;;;17.88;73.31
41040;BME280;48586;50.122;18.972;2022-09-09T21:55:33;98413.25;;;17.90;73.68
41040;BME280;48586;50.122;18.972;2022-09-09T21:58:37;98416.75;;;17.95;73.48
41040;BME280;48586;50.122;18.972;2022-09-09T22:01:40;98415.16;;;18.00;73.54
41040;BME280;48586;50.122;18.972;2022-09-09T22:04:42;98413.56;;;18.04;73.39
41040;BME280;48586;50.122;18.972;2022-09-09T22:07:45;98409.31;;;18.08;73.35
41040;BME280;48586;50.122;18.972;2022-09-09T22:10:48;98400.47;;;18.12;73.17
41040;BME280;48586;50.122;18.972;2022-09-09T22:13:50;98409.38;;;18.18;73.05
41040;BME280;48586;50.122;18.972;2022-09-09T22:16:53;98411.81;;;18.19;73.28
41040;BME280;48586;50.122;18.972;2022-09-09T22:19:55;98410.44;;;18.22;73.14
41040;BME280;48586;50.122;18.972;2022-09-09T22:22:59;98417.41;;;18.23;73.20
41040;BME280;48586;50.122;18.972;2022-09-09T22:26:05;98418.50;;;18.27;73.70
41040;BME280;48586;50.122;18.972;2022-09-09T22:29:07;98414.22;;;18.26;73.06
41040;BME280;48586;50.122;18.972;2022-09-09T22:32:09;98422.00;;;18.23;73.17
41040;BME280;48586;50.122;18.972;2022-09-09T22:35:11;98427.63;;;18.21;73.25
41040;BME280;48586;50.122;18.972;2022-09-09T22:38:13;98427.09;;;18.24;73.19
41040;BME280;48586;50.122;18.972;2022-09-09T22:41:19;98427.09;;;18.24;73.47
41040;BME280;48586;50.122;18.972;2022-09-09T22:44:22;98437.28;;;18.27;73.62
41040;BME280;48586;50.122;18.972;2022-09-09T22:47:24;98424.16;;;18.31;73.46
41040;BME280;48586;50.122;18.972;2022-09-09T22:50:27;98428.50;;;18.37;73.54
41040;BME280;48586;50.122;18.972;2022-09-09T22:53:31;98430.09;;;18.43;73.45
41040;BME280;48586;50.122;18.972;2022-09-09T22:56:36;98430.41;;;18.47;73.33
41040;BME280;48586;50.122;18.972;2022-09-09T22:59:38;98429.31;;;18.42;73.02
41040;BME280;48586;50.122;18.972;2022-09-09T23:02:41;98420.16;;;18.38;73.01
41040;BME280;48586;50.122;18.972;2022-09-09T23:05:52;98429.28;;;18.32;72.93
41040;BME280;48586;50.122;18.972;2022-09-09T23:08:56;98427.63;;;18.16;72.76
41040;BME280;48586;50.122;18.972;2022-09-09T23:12:00;98433.44;;;18.03;73.36
41040;BME280;48586;50.122;18.972;2022-09-09T23:15:03;98446.53;;;17.94;73.23
41040;BME280;48586;50.122;18.972;2022-09-09T23:18:09;98439.47;;;17.83;73.39
41040;BME280;48586;50.122;18.972;2022-09-09T23:21:12;98434.63;;;17.80;74.12
41040;BME280;48586;50.122;18.972;2022-09-09T23:24:16;98431.69;;;17.76;74.20
41040;BME280;48586;50.122;18.972;2022-09-09T23:27:20;98422.81;;;17.76;74.45
41040;BME280;48586;50.122;18.972;2022-09-09T23:30:22;98415.28;;;17.67;74.00
41040;BME280;48586;50.122;18.972;2022-09-09T23:33:24;98402.09;;;17.61;74.33
41040;BME280;48586;50.122;18.972;2022-09-09T23:36:27;98393.25;;;17.60;74.61
41040;BME280;48586;50.122;18.972;2022-09-09T23:39:29;98376.38;;;17.60;74.60
41040;BME280;48586;50.122;18.972;2022-09-09T23:42:33;98375.03;;;17.62;74.58
41040;BME280;48586;50.122;18.972;2022-09-09T23:45:34;98368.88;;;17.67;74.92
41040;BME280;48586;50.122;18.972;2022-09-09T23:48:37;98371.84;;;17.65;74.96
41040;BME280;48586;50.122;18.972;2022-09-09T23:51:38;98376.41;;;17.70;74.87
41040;BME280;48586;50.122;18.972;2022-09-09T23:54:40;98375.13;;;17.78;74.91
41040;BME280;48586;50.122;18.972;2022-09-09T23:57:44;98371.38;;;17.84;74.99
